createdAt,value
2024-01-12T00:00:43.253Z,3.38
2024-01-12T00:01:43.257Z,3.41
2024-01-12T00:02:57.772Z,2.58
2024-01-12T00:03:57.719Z,3.07
2024-01-12T00:04:57.773Z,2.56
2024-01-12T00:05:57.794Z,2.85
2024-01-12T00:06:57.815Z,3.09
2024-01-12T00:07:57.733Z,2.81
2024-01-12T00:08:57.786Z,3.41
2024-01-12T00:09:57.748Z,2.91
2024-01-12T00:10:57.710Z,2.97
2024-01-12T00:11:57.795Z,3.62
2024-01-12T00:12:57.761Z,3.38
2024-01-12T00:13:57.716Z,3.29
2024-01-12T00:14:57.845Z,2.71
2024-01-12T00:15:57.750Z,3.22
2024-01-12T00:16:57.724Z,2.80
2024-01-12T00:17:57.935Z,3.05
2024-01-12T00:18:57.729Z,3.35
2024-01-12T00:19:57.752Z,2.95
2024-01-12T00:20:57.816Z,3.00
2024-01-12T00:21:57.746Z,3.44
2024-01-12T00:22:57.741Z,3.04
2024-01-12T00:23:57.772Z,3.10
2024-01-12T00:24:57.755Z,3.54
2024-01-12T00:25:57.749Z,2.84
2024-01-12T00:26:57.762Z,3.07
2024-01-12T00:27:57.712Z,2.86
2024-01-12T00:28:57.734Z,2.94
2024-01-12T00:29:57.846Z,2.77
2024-01-12T00:30:57.863Z,2.74
2024-01-12T00:31:57.880Z,2.91
2024-01-12T00:32:58.028Z,2.65
2024-01-12T00:33:58.032Z,3.17
2024-01-12T00:34:58.112Z,2.82
2024-01-12T00:35:58.117Z,2.96
2024-01-12T00:36:58.143Z,2.97
2024-01-12T00:37:58.170Z,2.99
2024-01-12T00:38:58.339Z,3.08
2024-01-12T00:39:58.276Z,3.02
2024-01-12T00:40:58.320Z,2.69
2024-01-12T00:41:58.401Z,3.09
2024-01-12T00:42:58.407Z,2.86
2024-01-12T00:43:58.507Z,3.14
2024-01-12T00:44:58.572Z,2.61
2024-01-12T00:45:58.567Z,3.03
2024-01-12T00:46:58.616Z,3.43
2024-01-12T00:47:58.689Z,3.10
2024-01-12T00:48:58.789Z,3.02
2024-01-12T00:49:58.750Z,2.53
2024-01-12T00:50:58.906Z,2.39
2024-01-12T00:51:58.848Z,3.42
2024-01-12T00:52:58.887Z,2.69
2024-01-12T00:53:59.088Z,3.16
2024-01-12T00:54:58.992Z,3.33
2024-01-12T00:55:58.990Z,3.07
2024-01-12T00:56:59.179Z,2.68
2024-01-12T00:57:59.065Z,3.16
2024-01-12T00:58:59.063Z,2.79
2024-01-12T00:59:59.121Z,3.26
2024-01-12T01:00:59.202Z,2.51
2024-01-12T01:01:59.113Z,2.75
2024-01-12T01:02:59.113Z,3.31
2024-01-12T01:03:59.138Z,3.07
2024-01-12T01:04:59.101Z,2.69
2024-01-12T01:05:59.303Z,2.92
2024-01-12T01:06:59.207Z,3.15
2024-01-12T01:07:59.163Z,3.04
2024-01-12T01:08:59.197Z,3.23
2024-01-12T01:09:59.176Z,2.61
2024-01-12T01:10:59.215Z,2.50
2024-01-12T01:11:59.199Z,3.35
2024-01-12T01:12:59.202Z,3.02
2024-01-12T01:13:59.212Z,2.82
2024-01-12T01:14:59.271Z,2.69
2024-01-12T01:15:59.244Z,2.68
2024-01-12T01:16:59.299Z,2.81
2024-01-12T01:17:59.417Z,2.52
2024-01-12T01:18:59.558Z,2.83
2024-01-12T01:19:59.387Z,3.01
2024-01-12T01:20:59.401Z,2.35
2024-01-12T01:21:59.423Z,2.60
2024-01-12T01:22:59.341Z,2.77
2024-01-12T01:23:59.439Z,3.13
2024-01-12T01:24:59.378Z,2.49
2024-01-12T01:25:59.378Z,2.63
2024-01-12T01:26:59.480Z,2.91
2024-01-12T01:27:59.406Z,2.78
2024-01-12T01:28:59.412Z,2.71
2024-01-12T01:29:59.433Z,2.61
2024-01-12T01:30:59.558Z,3.34
2024-01-12T01:31:59.419Z,2.96
2024-01-12T01:32:59.522Z,3.14
2024-01-12T01:33:59.572Z,2.23
2024-01-12T01:34:59.446Z,3.08
2024-01-12T01:35:59.496Z,2.91
2024-01-12T01:36:59.468Z,2.49
2024-01-12T01:37:59.458Z,2.88
2024-01-12T01:38:59.493Z,2.69
2024-01-12T01:39:59.463Z,2.99
2024-01-12T01:40:59.498Z,2.64
2024-01-12T01:41:59.581Z,2.69
2024-01-12T01:42:59.516Z,2.65
2024-01-12T01:43:59.499Z,3.31
2024-01-12T01:44:59.559Z,2.78
2024-01-12T01:45:59.579Z,3.21
2024-01-12T01:47:00.430Z,3.31
2024-01-12T01:47:59.573Z,2.70
2024-01-12T01:48:59.594Z,2.52
2024-01-12T01:49:59.539Z,2.77
2024-01-12T01:50:59.667Z,2.75
2024-01-12T01:51:59.610Z,2.52
2024-01-12T01:52:59.598Z,2.62
2024-01-12T01:53:59.696Z,2.79
2024-01-12T01:54:59.633Z,2.76
2024-01-12T01:55:59.677Z,2.93
2024-01-12T01:56:59.714Z,2.22
2024-01-12T01:57:59.653Z,2.41
2024-01-12T01:58:59.646Z,3.05
2024-01-12T01:59:59.711Z,2.98
2024-01-12T02:00:59.700Z,2.55
2024-01-12T02:01:59.700Z,2.92
2024-01-12T02:02:59.737Z,2.46
2024-01-12T02:03:59.736Z,2.73
2024-01-12T02:04:59.731Z,2.60
2024-01-12T02:05:59.847Z,2.87
2024-01-12T02:06:59.797Z,2.21
2024-01-12T02:07:59.764Z,2.40
2024-01-12T02:08:59.831Z,2.60
2024-01-12T02:09:59.742Z,2.88
2024-01-12T02:10:59.766Z,3.16
2024-01-12T02:11:59.804Z,2.81
2024-01-12T02:12:59.796Z,2.76
2024-01-12T02:13:59.793Z,2.58
2024-01-12T02:14:59.842Z,2.84
2024-01-12T02:15:59.894Z,2.94
2024-01-12T02:16:59.853Z,2.88
2024-01-12T02:17:59.976Z,2.51
2024-01-12T02:18:59.976Z,2.59
2024-01-12T02:19:59.912Z,3.20
2024-01-12T02:20:59.987Z,2.78
2024-01-12T02:21:59.890Z,2.76
2024-01-12T02:22:59.916Z,2.45
2024-01-12T02:23:59.992Z,2.66
2024-01-12T02:24:59.946Z,2.82
2024-01-12T02:25:59.931Z,3.09
2024-01-12T02:27:00.042Z,2.88
2024-01-12T02:27:59.950Z,2.99
2024-01-12T02:28:59.966Z,2.93
2024-01-12T02:30:00.066Z,2.49
2024-01-12T02:31:00.073Z,2.75
2024-01-12T02:32:00.052Z,2.65
2024-01-12T02:33:00.064Z,2.67
2024-01-12T02:34:00.184Z,3.03
2024-01-12T02:35:00.065Z,2.83
2024-01-12T02:36:00.126Z,2.66
2024-01-12T02:37:00.081Z,2.67
2024-01-12T02:38:00.077Z,2.81
2024-01-12T02:39:00.135Z,3.23
2024-01-12T02:40:00.146Z,2.69
2024-01-12T02:41:00.149Z,2.88
2024-01-12T02:42:00.259Z,2.80
2024-01-12T02:43:00.162Z,2.45
2024-01-12T02:44:00.182Z,2.36
2024-01-12T02:45:00.272Z,2.91
2024-01-12T02:46:00.187Z,2.83
2024-01-12T02:47:00.201Z,3.54
2024-01-12T02:48:00.291Z,2.65
2024-01-12T02:49:00.270Z,3.02
2024-01-12T02:50:00.253Z,2.65
2024-01-12T02:51:00.238Z,2.87
2024-01-12T02:52:00.233Z,3.07
2024-01-12T02:53:00.234Z,2.77
2024-01-12T02:54:00.435Z,2.47
2024-01-12T02:55:00.277Z,2.70
2024-01-12T02:56:00.292Z,2.81
2024-01-12T02:57:00.403Z,2.82
2024-01-12T02:58:00.340Z,2.98
2024-01-12T02:59:00.302Z,2.76
2024-01-12T03:00:02.472Z,2.63
2024-01-12T03:01:00.466Z,2.60
2024-01-12T03:02:00.372Z,2.88
2024-01-12T03:03:00.464Z,2.17
2024-01-12T03:04:00.408Z,2.71
2024-01-12T03:05:00.378Z,2.41
2024-01-12T03:06:00.481Z,2.22
2024-01-12T03:07:00.311Z,2.81
2024-01-12T03:08:00.333Z,2.78
2024-01-12T03:09:00.474Z,2.24
2024-01-12T03:10:00.654Z,2.93
2024-01-12T03:11:00.365Z,2.43
2024-01-12T03:12:00.508Z,2.75
2024-01-12T03:13:00.411Z,2.62
2024-01-12T03:14:00.369Z,2.58
2024-01-12T03:15:00.565Z,2.66
2024-01-12T03:16:00.376Z,3.05
2024-01-12T03:17:00.388Z,2.47
2024-01-12T03:18:00.487Z,2.46
2024-01-12T03:19:00.596Z,2.54
2024-01-12T03:20:00.369Z,2.96
2024-01-12T03:21:00.507Z,3.34
2024-01-12T03:22:00.370Z,2.77
2024-01-12T03:23:00.381Z,3.17
2024-01-12T03:24:00.562Z,2.82
2024-01-12T03:25:00.382Z,2.54
2024-01-12T03:26:00.383Z,3.03
2024-01-12T03:27:00.536Z,2.55
2024-01-12T03:28:00.460Z,2.57
2024-01-12T03:29:00.388Z,2.72
2024-01-12T03:30:00.531Z,2.89
2024-01-12T03:31:00.408Z,2.77
2024-01-12T03:32:00.377Z,2.83
2024-01-12T03:33:00.534Z,2.37
2024-01-12T03:34:00.495Z,2.99
2024-01-12T03:35:00.482Z,2.94
2024-01-12T03:36:00.514Z,2.79
2024-01-12T03:37:00.421Z,2.53
2024-01-12T03:38:00.359Z,2.30
2024-01-12T03:39:00.459Z,2.60
2024-01-12T03:40:00.394Z,2.35
2024-01-12T03:41:00.407Z,2.71
2024-01-12T03:42:00.443Z,2.88
2024-01-12T03:43:00.403Z,2.54
2024-01-12T03:44:00.405Z,2.35
2024-01-12T03:45:00.594Z,2.53
2024-01-12T03:46:00.422Z,2.57
2024-01-12T03:47:00.420Z,2.63
2024-01-12T03:48:00.567Z,2.81
2024-01-12T03:49:00.457Z,2.66
2024-01-12T03:50:00.418Z,2.94
2024-01-12T03:51:00.519Z,2.52
2024-01-12T03:52:14.499Z,2.64
2024-01-12T03:53:01.400Z,2.57
2024-01-12T03:54:00.605Z,2.86
2024-01-12T03:55:00.396Z,2.84
2024-01-12T03:56:00.377Z,2.54
2024-01-12T03:57:00.438Z,2.94
2024-01-12T03:58:00.411Z,2.22
2024-01-12T03:59:00.406Z,2.22
2024-01-12T04:00:00.653Z,2.80
2024-01-12T04:01:00.549Z,2.29
2024-01-12T04:02:00.547Z,2.26
2024-01-12T04:03:00.701Z,2.59
2024-01-12T04:04:00.718Z,2.37
2024-01-12T04:05:00.761Z,2.21
2024-01-12T04:06:00.902Z,2.44
2024-01-12T04:07:00.880Z,2.48
2024-01-12T04:08:00.929Z,2.59
2024-01-12T04:09:01.069Z,2.47
2024-01-12T04:10:01.085Z,2.11
2024-01-12T04:11:01.098Z,2.72
2024-01-12T04:12:01.316Z,2.81
2024-01-12T04:13:01.216Z,2.74
2024-01-12T04:14:01.295Z,2.72
2024-01-12T04:15:01.429Z,2.39
2024-01-12T04:16:01.400Z,2.29
2024-01-12T04:17:01.472Z,2.07
2024-01-12T04:18:01.660Z,2.41
2024-01-12T04:19:01.720Z,2.46
2024-01-12T04:20:01.677Z,2.23
2024-01-12T04:21:01.789Z,2.48
2024-01-12T04:22:01.803Z,2.57
2024-01-12T04:23:01.841Z,2.45
2024-01-12T04:24:01.961Z,2.28
2024-01-12T04:25:01.971Z,2.50
2024-01-12T04:26:02.031Z,2.25
2024-01-12T04:27:02.187Z,2.59
2024-01-12T04:28:02.186Z,2.34
2024-01-12T04:29:02.206Z,2.36
2024-01-12T04:30:02.389Z,2.12
2024-01-12T04:31:09.856Z,2.55
2024-01-12T04:32:09.802Z,2.45
2024-01-12T04:33:09.882Z,2.09
2024-01-12T04:34:09.907Z,2.39
2024-01-12T04:35:09.809Z,2.42
2024-01-12T04:36:09.817Z,2.93
2024-01-12T04:37:09.811Z,2.40
2024-01-12T04:38:09.781Z,2.29
2024-01-12T04:39:09.834Z,2.54
2024-01-12T04:40:09.811Z,2.30
2024-01-12T04:41:09.801Z,2.87
2024-01-12T04:42:09.818Z,2.62
2024-01-12T04:43:09.784Z,2.46
2024-01-12T04:44:09.822Z,2.36
2024-01-12T04:45:09.878Z,2.41
2024-01-12T04:46:09.799Z,2.40
2024-01-12T04:47:09.862Z,2.39
2024-01-12T04:48:09.872Z,2.54
2024-01-12T04:49:09.878Z,2.18
2024-01-12T04:50:09.806Z,2.25
2024-01-12T04:51:09.851Z,2.19
2024-01-12T04:52:09.806Z,2.17
2024-01-12T04:53:09.824Z,2.10
2024-01-12T04:54:09.887Z,2.13
2024-01-12T04:55:09.850Z,2.43
2024-01-12T04:56:09.842Z,3.05
2024-01-12T04:57:09.923Z,2.16
2024-01-12T04:58:09.915Z,2.02
2024-01-12T04:59:09.980Z,1.98
2024-01-12T05:00:10.102Z,2.50
2024-01-12T05:01:10.064Z,2.67
2024-01-12T05:02:10.191Z,2.42
2024-01-12T05:03:11.638Z,2.37
2024-01-12T05:04:10.239Z,2.37
2024-01-12T05:05:10.175Z,2.86
2024-01-12T05:06:10.161Z,2.89
2024-01-12T05:07:10.200Z,3.13
2024-01-12T05:08:10.124Z,2.92
2024-01-12T05:09:10.328Z,2.69
2024-01-12T05:10:10.138Z,2.78
2024-01-12T05:11:10.146Z,2.97
2024-01-12T05:12:10.214Z,2.43
2024-01-12T05:13:10.159Z,2.63
2024-01-12T05:14:10.124Z,2.95
2024-01-12T05:15:10.212Z,3.04
2024-01-12T05:16:10.165Z,2.71
2024-01-12T05:17:10.166Z,3.09
2024-01-12T05:19:10.268Z,2.92
2024-01-12T05:20:10.267Z,2.96
2024-01-12T05:21:10.218Z,2.92
2024-01-12T05:22:10.177Z,3.16
2024-01-12T05:23:10.175Z,3.25
2024-01-12T05:24:10.228Z,2.67
2024-01-12T05:25:10.172Z,2.63
2024-01-12T05:26:10.197Z,2.84
2024-01-12T05:27:10.239Z,2.88
2024-01-12T05:28:10.213Z,3.26
2024-01-12T05:29:10.196Z,2.65
2024-01-12T05:30:10.389Z,3.02
2024-01-12T05:31:10.280Z,3.13
2024-01-12T05:32:10.173Z,2.72
2024-01-12T05:33:10.218Z,2.76
2024-01-12T05:34:10.268Z,2.33
2024-01-12T05:36:10.223Z,3.04
2024-01-12T05:37:10.214Z,3.00
2024-01-12T05:38:10.175Z,3.17
2024-01-12T05:39:10.266Z,2.96
2024-01-12T05:40:10.205Z,2.72
2024-01-12T05:41:10.186Z,2.61
2024-01-12T05:42:10.225Z,2.60
2024-01-12T05:43:10.216Z,2.64
2024-01-12T05:44:10.188Z,2.51
2024-01-12T05:45:10.224Z,2.55
2024-01-12T05:46:10.232Z,2.48
2024-01-12T05:47:10.242Z,2.69
2024-01-12T05:48:10.357Z,2.72
2024-01-12T05:49:10.266Z,2.41
2024-01-12T05:50:10.204Z,2.56
2024-01-12T05:51:10.282Z,2.68
2024-01-12T05:52:10.246Z,3.06
2024-01-12T05:53:10.230Z,2.46
2024-01-12T05:54:10.280Z,2.11
2024-01-12T05:55:10.226Z,2.42
2024-01-12T05:56:10.254Z,2.19
2024-01-12T05:57:10.341Z,2.56
2024-01-12T05:58:10.238Z,1.90
2024-01-12T05:59:10.256Z,2.15
2024-01-12T06:00:10.295Z,2.41
2024-01-12T06:01:11.725Z,2.43
2024-01-12T06:02:10.235Z,2.11
2024-01-12T06:03:10.361Z,2.43
2024-01-12T06:04:10.318Z,2.26
2024-01-12T06:05:10.306Z,2.18
2024-01-12T06:06:10.357Z,2.03
2024-01-12T06:07:10.245Z,2.23
2024-01-12T06:08:11.767Z,2.26
2024-01-12T06:09:10.285Z,2.19
2024-01-12T06:10:10.260Z,2.61
2024-01-12T06:11:10.248Z,2.19
2024-01-12T06:12:10.253Z,2.34
2024-01-12T06:13:10.230Z,2.51
2024-01-12T06:14:10.261Z,2.51
2024-01-12T06:15:10.288Z,2.20
2024-01-12T06:16:10.232Z,2.54
2024-01-12T06:17:10.261Z,2.02
2024-01-12T06:18:10.380Z,2.65
2024-01-12T06:19:10.400Z,2.42
2024-01-12T06:20:10.277Z,2.03
2024-01-12T06:21:10.349Z,2.27
2024-01-12T06:22:10.278Z,2.00
2024-01-12T06:23:10.276Z,1.77
2024-01-12T06:24:10.334Z,2.11
2024-01-12T06:25:10.259Z,2.05
2024-01-12T06:26:10.261Z,1.99
2024-01-12T06:27:10.449Z,2.35
2024-01-12T06:28:10.278Z,2.25
2024-01-12T06:29:10.247Z,1.82
2024-01-12T06:30:10.426Z,2.57
2024-01-12T06:31:10.421Z,2.18
2024-01-12T06:32:11.104Z,2.04
2024-01-12T06:33:10.383Z,2.79
2024-01-12T06:34:10.382Z,2.55
2024-01-12T06:35:10.293Z,3.36
2024-01-12T06:36:10.311Z,3.33
2024-01-12T06:37:10.287Z,4.58
2024-01-12T06:38:10.270Z,4.76
2024-01-12T06:39:10.336Z,5.06
2024-01-12T06:40:10.323Z,5.82
2024-01-12T06:41:10.310Z,6.08
2024-01-12T06:42:10.358Z,5.48
2024-01-12T06:43:10.390Z,5.13
2024-01-12T06:44:10.317Z,4.88
2024-01-12T06:45:10.351Z,5.21
2024-01-12T06:46:10.346Z,6.43
2024-01-12T06:47:10.351Z,7.29
2024-01-12T06:48:10.436Z,8.59
2024-01-12T06:49:10.391Z,6.82
2024-01-12T06:50:10.316Z,8.22
2024-01-12T06:51:10.511Z,6.76
2024-01-12T06:52:10.329Z,6.40
2024-01-12T06:53:10.872Z,6.23
2024-01-12T06:54:10.882Z,6.62
2024-01-12T06:55:10.506Z,6.43
2024-01-12T06:56:10.542Z,6.07
2024-01-12T06:57:10.629Z,6.32
2024-01-12T06:58:10.848Z,6.22
2024-01-12T06:59:10.648Z,6.13
2024-01-12T07:00:10.681Z,6.73
2024-01-12T07:01:10.883Z,6.28
2024-01-12T07:02:10.704Z,5.83
2024-01-12T07:03:10.963Z,5.71
2024-01-12T07:04:10.897Z,5.25
2024-01-12T07:05:10.827Z,5.89
2024-01-12T07:06:11.503Z,5.30
2024-01-12T07:07:11.419Z,5.55
2024-01-12T07:08:11.040Z,6.09
2024-01-12T07:09:11.179Z,6.35
2024-01-12T07:10:11.173Z,6.23
2024-01-12T07:11:11.349Z,5.99
2024-01-12T07:12:11.317Z,6.09
2024-01-12T07:13:11.372Z,5.71
2024-01-12T07:14:11.846Z,6.42
2024-01-12T07:15:11.609Z,6.33
2024-01-12T07:16:11.497Z,5.63
2024-01-12T07:17:11.591Z,6.33
2024-01-12T07:18:11.772Z,5.13
2024-01-12T07:19:12.170Z,6.53
2024-01-12T07:20:12.366Z,5.80
2024-01-12T07:21:12.001Z,5.45
2024-01-12T07:22:12.368Z,5.27
2024-01-12T07:23:11.949Z,5.18
2024-01-12T07:24:12.082Z,5.90
2024-01-12T07:25:12.145Z,5.45
2024-01-12T07:26:12.187Z,5.47
2024-01-12T07:27:12.421Z,5.59
2024-01-12T07:28:12.303Z,5.81
2024-01-12T07:29:12.398Z,5.95
2024-01-12T07:30:12.598Z,5.57
2024-01-12T07:31:12.564Z,5.45
2024-01-12T07:32:12.963Z,5.30
2024-01-12T07:33:12.788Z,5.20
2024-01-12T07:34:12.816Z,5.00
2024-01-12T07:35:12.813Z,5.72
2024-01-12T07:36:12.886Z,5.42
2024-01-12T07:37:12.947Z,5.32
2024-01-12T07:38:12.934Z,4.44
2024-01-12T07:39:12.999Z,4.86
2024-01-12T07:40:13.054Z,4.93
2024-01-12T07:41:13.373Z,5.22
2024-01-12T07:42:13.161Z,4.37
2024-01-12T07:43:13.181Z,4.42
2024-01-12T07:44:13.215Z,4.22
2024-01-12T07:45:13.353Z,4.41
2024-01-12T07:46:13.360Z,4.25
2024-01-12T07:47:13.293Z,4.12
2024-01-12T07:48:13.520Z,4.50
2024-01-12T07:49:13.389Z,3.47
2024-01-12T07:50:13.335Z,4.13
2024-01-12T07:51:13.940Z,4.47
2024-01-12T07:52:17.118Z,3.86
2024-01-12T07:53:14.486Z,4.07
2024-01-12T07:54:13.489Z,4.19
2024-01-12T07:55:13.474Z,3.26
2024-01-12T07:56:13.940Z,3.99
2024-01-12T07:57:13.482Z,3.68
2024-01-12T07:58:13.506Z,3.82
2024-01-12T07:59:13.480Z,4.83
2024-01-12T08:00:13.544Z,6.12
2024-01-12T08:01:13.873Z,5.03
2024-01-12T08:02:13.522Z,5.34
2024-01-12T08:03:13.926Z,5.20
2024-01-12T08:04:13.621Z,5.81
2024-01-12T08:05:13.772Z,7.72
2024-01-12T08:06:13.794Z,6.56
2024-01-12T08:07:13.971Z,6.73
2024-01-12T08:08:13.902Z,5.22
2024-01-12T08:09:13.853Z,4.85
2024-01-12T08:10:13.904Z,5.08
2024-01-12T08:11:23.373Z,5.04
2024-01-12T08:12:14.980Z,4.96
2024-01-12T08:13:15.488Z,4.58
2024-01-12T08:14:13.930Z,5.58
2024-01-12T08:15:14.071Z,4.58
2024-01-12T08:16:13.955Z,4.88
2024-01-12T08:17:13.999Z,4.43
2024-01-12T08:18:14.483Z,4.30
2024-01-12T08:19:13.984Z,3.98
2024-01-12T08:20:13.990Z,4.54
2024-01-12T08:21:14.017Z,4.09
2024-01-12T08:22:14.045Z,3.86
2024-01-12T08:23:14.355Z,3.97
2024-01-12T08:24:14.056Z,4.26
2024-01-12T08:25:14.143Z,4.07
2024-01-12T08:26:15.062Z,3.79
2024-01-12T08:27:15.655Z,3.52
2024-01-12T08:28:14.167Z,4.30
2024-01-12T08:29:14.168Z,3.77
2024-01-12T08:30:14.593Z,4.28
2024-01-12T08:31:14.472Z,4.27
2024-01-12T08:32:14.172Z,4.15
2024-01-12T08:33:14.345Z,3.83
2024-01-12T08:34:14.324Z,3.59
2024-01-12T08:35:14.192Z,3.84
2024-01-12T08:36:14.209Z,3.67
2024-01-12T08:37:14.404Z,2.87
2024-01-12T08:38:14.160Z,3.93
2024-01-12T08:39:14.122Z,3.85
2024-01-12T08:40:14.178Z,3.31
2024-01-12T08:41:14.395Z,2.72
2024-01-12T08:42:14.194Z,3.24
2024-01-12T08:43:14.145Z,3.17
2024-01-12T08:44:14.167Z,3.34
2024-01-12T08:45:14.152Z,2.65
2024-01-12T08:46:14.425Z,2.90
2024-01-12T08:47:14.138Z,3.08
2024-01-12T08:48:14.428Z,3.01
2024-01-12T08:49:14.312Z,2.72
2024-01-12T08:50:14.175Z,3.27
2024-01-12T08:51:14.203Z,3.02
2024-01-12T08:52:14.187Z,3.01
2024-01-12T08:53:14.187Z,2.69
2024-01-12T08:54:14.214Z,2.75
2024-01-12T08:55:14.425Z,2.66
2024-01-12T08:56:14.184Z,3.60
2024-01-12T08:57:14.262Z,3.07
2024-01-12T08:58:14.210Z,2.47
2024-01-12T08:59:14.174Z,2.62
2024-01-12T09:00:14.322Z,3.03
2024-01-12T09:01:14.449Z,3.51
2024-01-12T09:02:14.340Z,2.91
2024-01-12T09:03:14.277Z,3.00
2024-01-12T09:04:14.329Z,3.17
2024-01-12T09:05:14.268Z,3.45
2024-01-12T09:06:14.580Z,2.92
2024-01-12T09:07:14.301Z,2.70
2024-01-12T09:08:14.396Z,3.21
2024-01-12T09:09:14.293Z,3.03
2024-01-12T09:10:14.434Z,3.81
2024-01-12T09:11:14.247Z,3.45
2024-01-12T09:12:14.355Z,3.29
2024-01-12T09:13:14.328Z,3.52
2024-01-12T09:14:14.432Z,3.75
2024-01-12T09:15:14.981Z,4.00
2024-01-12T09:16:14.559Z,4.04
2024-01-12T09:17:15.472Z,3.81
2024-01-12T09:18:14.751Z,3.28
2024-01-12T09:19:14.702Z,3.36
2024-01-12T09:20:14.728Z,3.40
2024-01-12T09:21:14.823Z,3.72
2024-01-12T09:22:14.984Z,3.29
2024-01-12T09:23:14.818Z,2.90
2024-01-12T09:24:14.994Z,4.42
2024-01-12T09:25:14.921Z,4.37
2024-01-12T09:26:14.951Z,5.09
2024-01-12T09:27:15.072Z,5.41
2024-01-12T09:28:15.522Z,5.09
2024-01-12T09:29:15.264Z,5.27
2024-01-12T09:30:15.373Z,5.50
2024-01-12T09:31:15.518Z,5.37
2024-01-12T09:32:15.362Z,6.44
2024-01-12T09:33:15.510Z,7.40
2024-01-12T09:34:15.737Z,10.53
2024-01-12T09:35:15.544Z,10.57
2024-01-12T09:36:15.853Z,11.23
2024-01-12T09:37:15.576Z,11.18
2024-01-12T09:38:15.724Z,8.73
2024-01-12T09:39:16.228Z,9.59
2024-01-12T09:40:15.829Z,10.79
2024-01-12T09:41:15.815Z,13.23
2024-01-12T09:42:15.866Z,10.32
2024-01-12T09:43:15.914Z,9.09
2024-01-12T09:44:15.897Z,8.46
2024-01-12T09:45:21.454Z,8.25
2024-01-12T09:46:16.926Z,7.94
2024-01-12T09:47:15.947Z,7.64
2024-01-12T09:48:16.074Z,8.56
2024-01-12T09:49:16.499Z,7.48
2024-01-12T09:50:15.941Z,7.95
2024-01-12T09:51:15.993Z,7.21
2024-01-12T09:52:15.961Z,7.00
2024-01-12T09:53:15.942Z,7.00
2024-01-12T09:54:16.421Z,7.22
2024-01-12T09:55:15.943Z,6.90
2024-01-12T09:56:17.273Z,6.58
2024-01-12T09:57:15.995Z,6.94
2024-01-12T09:58:15.952Z,5.90
2024-01-12T09:59:15.991Z,5.53
2024-01-12T10:00:16.151Z,6.04
2024-01-12T10:01:16.584Z,5.44
2024-01-12T10:02:16.105Z,5.16
2024-01-12T10:03:16.145Z,5.35
2024-01-12T10:04:16.248Z,5.75
2024-01-12T10:05:16.126Z,6.01
2024-01-12T10:06:16.592Z,5.67
2024-01-12T10:07:16.236Z,9.02
2024-01-12T10:08:16.424Z,9.94
2024-01-12T10:09:16.302Z,10.63
2024-01-12T10:10:16.360Z,10.20
2024-01-12T10:11:16.369Z,9.47
2024-01-12T10:12:16.420Z,9.97
2024-01-12T10:13:16.457Z,9.75
2024-01-12T10:14:16.446Z,11.25
2024-01-12T10:15:16.546Z,12.35
2024-01-12T10:16:16.523Z,10.94
2024-01-12T10:17:16.606Z,10.95
2024-01-12T10:18:17.143Z,10.61
2024-01-12T10:19:16.865Z,11.16
2024-01-12T10:20:16.781Z,10.35
2024-01-12T10:21:16.887Z,10.93
2024-01-12T10:22:16.933Z,11.40
2024-01-12T10:23:16.940Z,11.33
2024-01-12T10:24:17.072Z,11.92
2024-01-12T10:25:17.074Z,11.09
2024-01-12T10:26:17.451Z,11.36
2024-01-12T10:27:17.228Z,11.33
2024-01-12T10:28:17.453Z,11.33
2024-01-12T10:29:17.373Z,12.63
2024-01-12T10:30:17.485Z,12.02
2024-01-12T10:31:17.974Z,11.25
2024-01-12T10:32:17.728Z,10.48
2024-01-12T10:33:17.629Z,9.41
2024-01-12T10:34:18.228Z,8.21
2024-01-12T10:35:17.689Z,6.73
2024-01-12T10:36:17.639Z,7.15
2024-01-12T10:37:17.677Z,7.22
2024-01-12T10:38:17.752Z,6.48
2024-01-12T10:39:17.709Z,6.69
2024-01-12T10:40:17.695Z,7.60
2024-01-12T10:41:17.962Z,7.53
2024-01-12T10:42:17.835Z,5.88
2024-01-12T10:43:17.933Z,5.96
2024-01-12T10:44:17.952Z,5.86
2024-01-12T10:45:17.958Z,5.96
2024-01-12T10:46:17.990Z,5.81
2024-01-12T10:47:19.018Z,5.82
2024-01-12T10:48:18.620Z,5.21
2024-01-12T10:49:18.265Z,5.49
2024-01-12T10:50:18.153Z,5.76
2024-01-12T10:51:18.187Z,5.42
2024-01-12T10:52:20.067Z,5.55
2024-01-12T10:53:18.444Z,5.79
2024-01-12T10:54:18.372Z,5.52
2024-01-12T10:55:18.430Z,5.53
2024-01-12T10:56:18.443Z,4.99
2024-01-12T10:57:18.434Z,5.40
2024-01-12T10:58:18.484Z,5.44
2024-01-12T10:59:18.467Z,5.56
2024-01-12T11:00:18.552Z,4.99
2024-01-12T11:01:18.470Z,4.76
2024-01-12T11:02:18.499Z,4.81
2024-01-12T11:03:18.740Z,5.24
2024-01-12T11:04:18.648Z,5.39
2024-01-12T11:05:18.690Z,4.76
2024-01-12T11:06:18.868Z,5.30
2024-01-12T11:07:19.043Z,5.23
2024-01-12T11:08:19.004Z,4.42
2024-01-12T11:09:18.918Z,4.61
2024-01-12T11:10:18.965Z,4.69
2024-01-12T11:11:19.062Z,4.54
2024-01-12T11:12:19.103Z,4.82
2024-01-12T11:13:19.149Z,4.99
2024-01-12T11:14:19.470Z,4.39
2024-01-12T11:15:19.337Z,4.79
2024-01-12T11:16:19.471Z,4.41
2024-01-12T11:17:19.435Z,4.17
2024-01-12T11:18:19.494Z,4.95
2024-01-12T11:19:19.606Z,5.01
2024-01-12T11:20:20.113Z,4.26
2024-01-12T11:21:19.664Z,4.33
2024-01-12T11:22:19.649Z,5.16
2024-01-12T11:23:19.767Z,4.58
2024-01-12T11:24:19.741Z,4.38
2024-01-12T11:25:20.082Z,4.60
2024-01-12T11:26:19.992Z,4.44
2024-01-12T11:27:19.912Z,4.64
2024-01-12T11:28:20.015Z,4.77
2024-01-12T11:29:20.050Z,4.40
2024-01-12T11:30:20.317Z,3.98
2024-01-12T11:31:20.520Z,4.64
2024-01-12T11:32:20.266Z,5.00
2024-01-12T11:33:20.509Z,4.34
2024-01-12T11:34:20.816Z,4.34
2024-01-12T11:35:20.512Z,5.41
2024-01-12T11:36:20.462Z,4.29
2024-01-12T11:37:20.487Z,4.29
2024-01-12T11:38:20.614Z,4.43
2024-01-12T11:39:20.600Z,4.42
2024-01-12T11:40:20.655Z,4.68
2024-01-12T11:41:20.696Z,4.18
2024-01-12T11:42:20.785Z,4.50
2024-01-12T11:43:20.822Z,4.56
2024-01-12T11:44:20.910Z,3.98
2024-01-12T11:45:21.008Z,4.62
2024-01-12T11:46:21.032Z,4.43
2024-01-12T11:47:21.130Z,4.80
2024-01-12T11:48:21.158Z,4.87
2024-01-12T11:49:21.216Z,4.08
2024-01-12T11:50:21.536Z,4.05
2024-01-12T11:51:21.053Z,5.34
2024-01-12T11:52:21.466Z,4.05
2024-01-12T11:53:21.172Z,4.34
2024-01-12T11:54:21.148Z,4.16
2024-01-12T11:55:21.274Z,3.99
2024-01-12T11:56:21.517Z,3.99
2024-01-12T11:57:21.391Z,3.93
2024-01-12T11:58:21.501Z,3.95
2024-01-12T11:59:21.389Z,3.41
2024-01-12T12:00:21.313Z,4.06
2024-01-12T12:01:21.501Z,3.83
2024-01-12T12:02:21.472Z,3.55
2024-01-12T12:03:21.620Z,4.11
2024-01-12T12:04:21.525Z,4.16
2024-01-12T12:05:21.684Z,3.59
2024-01-12T12:06:22.198Z,3.98
2024-01-12T12:07:21.637Z,4.05
2024-01-12T12:08:21.549Z,3.85
2024-01-12T12:09:21.522Z,4.24
2024-01-12T12:10:27.065Z,3.79
2024-01-12T12:11:22.642Z,4.09
2024-01-12T12:12:21.504Z,4.20
2024-01-12T12:13:21.571Z,3.46
2024-01-12T12:14:21.523Z,3.70
2024-01-12T12:15:22.495Z,3.95
2024-01-12T12:16:21.964Z,3.90
2024-01-12T12:17:21.616Z,3.88
2024-01-12T12:18:21.733Z,3.51
2024-01-12T12:19:23.919Z,3.16
2024-01-12T12:20:21.553Z,3.83
2024-01-12T12:21:21.540Z,3.66
2024-01-12T12:22:21.573Z,3.75
2024-01-12T12:23:21.626Z,3.89
2024-01-12T12:24:21.541Z,4.01
2024-01-12T12:25:21.579Z,4.13
2024-01-12T12:26:22.019Z,3.96
2024-01-12T12:27:21.548Z,4.20
2024-01-12T12:28:21.584Z,3.78
2024-01-12T12:29:21.593Z,3.69
2024-01-12T12:30:21.668Z,4.39
2024-01-12T12:31:21.607Z,3.71
2024-01-12T12:32:21.630Z,3.82
2024-01-12T12:33:21.666Z,3.48
2024-01-12T12:34:21.729Z,3.88
2024-01-12T12:35:21.906Z,3.92
2024-01-12T12:36:21.659Z,3.72
2024-01-12T12:37:21.608Z,3.45
2024-01-12T12:38:21.609Z,3.35
2024-01-12T12:39:21.618Z,3.71
2024-01-12T12:40:21.674Z,3.65
2024-01-12T12:41:21.618Z,3.76
2024-01-12T12:42:21.594Z,3.19
2024-01-12T12:43:21.610Z,3.71
2024-01-12T12:44:21.677Z,4.37
2024-01-12T12:45:21.601Z,3.30
2024-01-12T12:46:21.613Z,3.88
2024-01-12T12:47:21.644Z,4.00
2024-01-12T12:48:21.685Z,2.89
2024-01-12T12:49:21.866Z,3.58
2024-01-12T12:50:21.669Z,4.10
2024-01-12T12:51:21.621Z,3.64
2024-01-12T12:52:21.622Z,3.35
2024-01-12T12:53:21.660Z,3.35
2024-01-12T12:54:21.687Z,3.63
2024-01-12T12:55:21.620Z,3.98
2024-01-12T12:56:21.677Z,3.86
2024-01-12T12:57:21.635Z,3.28
2024-01-12T12:58:21.622Z,4.01
2024-01-12T12:59:21.727Z,3.00
2024-01-12T13:00:21.617Z,3.47
2024-01-12T13:01:21.612Z,3.63
2024-01-12T13:02:21.719Z,3.35
2024-01-12T13:03:21.727Z,3.01
2024-01-12T13:04:21.698Z,2.93
2024-01-12T13:05:21.684Z,3.09
2024-01-12T13:06:21.719Z,2.89
2024-01-12T13:07:21.644Z,3.30
2024-01-12T13:08:21.621Z,3.77
2024-01-12T13:09:21.625Z,3.50
2024-01-12T13:10:21.643Z,3.23
2024-01-12T13:11:21.656Z,3.54
2024-01-12T13:12:21.638Z,2.63
2024-01-12T13:13:21.645Z,3.07
2024-01-12T13:14:21.673Z,3.62
2024-01-12T13:15:21.680Z,3.46
2024-01-12T13:16:21.661Z,3.31
2024-01-12T13:17:21.781Z,3.83
2024-01-12T13:18:21.681Z,2.80
2024-01-12T13:19:25.850Z,3.05
2024-01-12T13:20:22.782Z,2.94